createdAt,value
2022-10-06T00:00:38.989Z,1.83
2022-10-06T00:05:40.539Z,1.80
2022-10-06T00:10:41.893Z,1.27
2022-10-06T00:15:43.242Z,1.17
2022-10-06T00:20:44.707Z,1.10
2022-10-06T00:25:46.018Z,0.90
2022-10-06T00:35:56.438Z,1.05
2022-10-06T00:40:57.955Z,1.10
2022-10-06T00:45:59.346Z,1.65
2022-10-06T00:51:00.756Z,1.02
2022-10-06T01:01:03.936Z,1.10
2022-10-06T01:06:05.727Z,1.42
2022-10-06T01:11:13.136Z,1.20
2022-10-06T01:16:26.872Z,1.42
2022-10-06T01:21:38.450Z,1.55
2022-10-06T01:26:45.214Z,1.17
2022-10-06T01:31:46.603Z,1.27
2022-10-06T01:41:49.916Z,0.88
2022-10-06T01:46:51.321Z,1.50
2022-10-06T01:51:52.677Z,1.20
2022-10-06T02:01:55.770Z,1.55
2022-10-06T02:06:57.132Z,1.23
2022-10-06T02:17:00.406Z,2.20
2022-10-06T02:22:07.215Z,1.15
2022-10-06T02:27:08.631Z,0.80
2022-10-06T02:37:13.077Z,1.08
2022-10-06T02:42:14.408Z,1.02
2022-10-06T02:57:18.816Z,1.48
2022-10-06T03:02:20.295Z,1.40
2022-10-06T03:07:21.733Z,1.63
2022-10-06T03:17:24.405Z,1.08
2022-10-06T03:22:25.759Z,1.23
2022-10-06T03:27:27.139Z,0.88
2022-10-06T03:32:28.483Z,1.38
2022-10-06T03:37:29.845Z,0.93
2022-10-06T03:47:33.488Z,1.15
2022-10-06T03:57:36.051Z,1.30
2022-10-06T04:02:37.365Z,1.52
2022-10-06T04:07:38.685Z,1.17
2022-10-06T04:12:40.057Z,1.70
2022-10-06T04:22:42.614Z,2.50
2022-10-06T04:27:43.954Z,2.45
2022-10-06T04:37:47.226Z,2.47
2022-10-06T04:42:49.244Z,2.15
2022-10-06T04:47:50.600Z,2.05
2022-10-06T04:57:55.129Z,2.10
2022-10-06T05:02:56.531Z,1.75
2022-10-06T05:12:59.166Z,1.92
2022-10-06T05:18:00.535Z,1.58
2022-10-06T05:23:01.898Z,2.05
2022-10-06T05:33:07.246Z,1.42
2022-10-06T05:38:11.576Z,1.40
2022-10-06T05:43:12.901Z,2.25
2022-10-06T05:48:14.214Z,1.65
2022-10-06T05:53:15.952Z,1.63
2022-10-06T05:58:18.601Z,1.80
2022-10-06T06:03:20.012Z,1.73
2022-10-06T06:08:21.330Z,2.25
2022-10-06T06:13:23.339Z,1.95
2022-10-06T06:18:24.693Z,1.75
2022-10-06T06:23:31.624Z,2.20
2022-10-06T06:28:35.369Z,2.20
2022-10-06T06:33:39.247Z,1.85
2022-10-06T06:38:40.824Z,2.78
2022-10-06T06:43:42.459Z,1.52
2022-10-06T06:48:44.939Z,2.40
2022-10-06T06:53:46.273Z,2.13
2022-10-06T06:58:47.904Z,2.50
2022-10-06T07:03:59.035Z,1.67
2022-10-06T07:09:00.873Z,1.73
2022-10-06T07:14:04.841Z,1.63
2022-10-06T07:19:25.622Z,1.85
2022-10-06T07:24:46.738Z,1.83
2022-10-06T07:29:54.235Z,1.70
2022-10-06T07:34:56.624Z,1.73
2022-10-06T07:39:58.181Z,2.00
2022-10-06T07:50:19.337Z,2.00
2022-10-06T07:55:20.642Z,2.00
2022-10-06T08:00:22.307Z,2.00
2022-10-06T08:05:23.784Z,1.92
2022-10-06T08:10:25.446Z,2.03
2022-10-06T08:15:26.851Z,2.10
2022-10-06T08:25:29.557Z,1.67
2022-10-06T08:30:30.900Z,1.77
2022-10-06T08:40:35.168Z,2.25
2022-10-06T08:45:44.600Z,1.83
2022-10-06T08:51:21.148Z,2.00
2022-10-06T08:56:39.618Z,1.85
2022-10-06T09:01:45.364Z,2.13
2022-10-06T09:06:59.674Z,2.22
2022-10-06T09:12:35.554Z,1.58
2022-10-06T09:17:49.696Z,1.92
2022-10-06T09:22:51.528Z,1.70
2022-10-06T09:27:58.740Z,1.33
2022-10-06T09:33:05.612Z,2.33
2022-10-06T09:38:08.974Z,1.50
2022-10-06T09:43:29.375Z,1.50
2022-10-06T09:48:30.687Z,1.75
2022-10-06T09:58:39.504Z,1.42
2022-10-06T10:04:20.168Z,1.17
2022-10-06T10:09:22.718Z,1.40
2022-10-06T10:14:24.543Z,1.70
2022-10-06T10:19:33.972Z,1.45
2022-10-06T10:24:50.029Z,1.83
2022-10-06T10:30:01.907Z,1.63
2022-10-06T10:35:23.442Z,1.80
2022-10-06T10:40:51.695Z,2.00
2022-10-06T10:46:01.479Z,2.63
2022-10-06T10:51:32.118Z,3.13
2022-10-06T10:56:33.868Z,1.50
2022-10-06T11:01:45.993Z,1.23
2022-10-06T11:07:13.691Z,1.58
2022-10-06T11:12:37.085Z,1.50
2022-10-06T11:17:44.566Z,1.42
2022-10-06T11:22:59.592Z,2.10
2022-10-06T11:28:17.106Z,0.98
2022-10-06T11:33:29.824Z,1.23
2022-10-06T11:38:42.149Z,1.58
2022-10-06T11:44:03.526Z,1.52
2022-10-06T11:54:46.261Z,1.33
2022-10-06T11:59:48.523Z,1.17
2022-10-06T12:10:36.266Z,1.15
2022-10-06T12:21:50.578Z,1.40
2022-10-06T12:27:10.517Z,1.90
2022-10-06T12:32:24.700Z,0.90
2022-10-06T12:37:29.130Z,0.88
2022-10-06T12:42:31.422Z,1.30
2022-10-06T12:47:39.293Z,1.00
2022-10-06T12:52:47.880Z,0.88
2022-10-06T12:57:54.103Z,0.80
2022-10-06T13:02:57.682Z,0.95
2022-10-06T13:08:02.028Z,1.10
2022-10-06T13:13:21.146Z,0.80
2022-10-06T13:18:23.203Z,1.35
2022-10-06T13:23:37.697Z,1.15
2022-10-06T13:28:52.575Z,1.13
2022-10-06T13:34:06.668Z,0.80
2022-10-06T13:39:21.941Z,1.20
2022-10-06T13:44:26.061Z,1.00
2022-10-06T13:49:45.169Z,0.70
2022-10-06T13:54:54.381Z,1.00
2022-10-06T14:00:23.040Z,1.50
2022-10-06T14:05:29.414Z,1.00
2022-10-06T14:10:48.447Z,0.70
2022-10-06T14:15:53.806Z,0.77
2022-10-06T14:20:57.059Z,0.90
2022-10-06T14:25:58.956Z,0.82
2022-10-06T14:31:00.407Z,0.77
2022-10-06T14:36:02.719Z,1.02
2022-10-06T14:41:04.035Z,0.73
2022-10-06T14:46:08.479Z,0.80
2022-10-06T14:51:11.617Z,0.80
2022-10-06T14:56:15.693Z,0.82
2022-10-06T15:01:19.479Z,0.80
2022-10-06T15:06:39.917Z,0.85
2022-10-06T15:11:41.496Z,0.83
2022-10-06T15:16:44.413Z,0.82
2022-10-06T15:21:46.094Z,0.88
2022-10-06T15:27:06.413Z,0.80
2022-10-06T15:32:08.212Z,0.50
2022-10-06T15:37:09.612Z,0.47
2022-10-06T15:42:11.017Z,0.70
2022-10-06T15:47:12.853Z,0.77
2022-10-06T15:52:14.213Z,0.70
2022-10-06T15:57:20.638Z,0.70
2022-10-06T16:02:22.970Z,0.80
2022-10-06T16:07:24.502Z,0.80
2022-10-06T16:12:28.314Z,1.10
2022-10-06T16:17:30.573Z,0.85
2022-10-06T16:22:31.947Z,0.75
2022-10-06T16:27:33.686Z,1.05
2022-10-06T16:32:35.210Z,0.77
2022-10-06T16:37:36.627Z,1.17
2022-10-06T16:42:38.216Z,1.33
2022-10-06T16:47:40.138Z,1.27
2022-10-06T16:52:41.658Z,1.17
2022-10-06T16:57:43.697Z,0.82
2022-10-06T17:02:45.036Z,1.10
2022-10-06T17:07:46.378Z,1.10
2022-10-06T17:17:48.983Z,1.40
2022-10-06T17:27:51.564Z,1.67
2022-10-06T17:37:54.294Z,1.50
2022-10-06T17:47:57.013Z,1.88
2022-10-06T17:58:00.718Z,1.75
2022-10-06T18:08:05.251Z,1.60
2022-10-06T18:13:07.121Z,1.80
2022-10-06T18:18:08.445Z,1.67
2022-10-06T18:28:11.983Z,1.60
2022-10-06T18:35:57.508Z,1.70
2022-10-06T18:38:41.617Z,1.67
2022-10-06T18:43:43.709Z,1.85
2022-10-06T18:49:00.272Z,2.20
2022-10-06T18:54:05.305Z,1.90
2022-10-06T18:59:13.621Z,1.73
2022-10-06T19:04:18.148Z,2.20
2022-10-06T19:09:22.331Z,2.20
2022-10-06T19:14:29.693Z,2.00
2022-10-06T19:19:31.752Z,1.98
2022-10-06T19:24:35.786Z,2.13
2022-10-06T19:29:37.848Z,1.77
2022-10-06T19:34:39.224Z,1.80
2022-10-06T19:44:44.330Z,1.73
2022-10-06T19:49:45.670Z,2.28
2022-10-06T19:54:47.172Z,2.28
2022-10-06T20:04:52.024Z,2.40
2022-10-06T20:09:53.462Z,2.00
2022-10-06T20:19:57.728Z,2.67
2022-10-06T20:25:01.684Z,2.97
2022-10-06T20:30:03.712Z,3.42
2022-10-06T20:35:05.158Z,3.05
2022-10-06T20:45:26.569Z,3.20
2022-10-06T20:50:31.021Z,3.22
2022-10-06T20:55:32.361Z,3.33
2022-10-06T21:00:40.592Z,3.22
2022-10-06T21:05:48.101Z,3.33
2022-10-06T21:11:00.395Z,4.13
2022-10-06T21:16:02.824Z,3.10
2022-10-06T21:21:07.568Z,2.97
2022-10-06T21:26:12.461Z,3.33
2022-10-06T21:31:16.380Z,2.97
2022-10-06T21:36:22.216Z,3.10
2022-10-06T21:41:28.671Z,3.30
2022-10-06T21:46:33.018Z,3.08
2022-10-06T21:51:34.897Z,3.13
2022-10-06T21:56:36.240Z,2.75
2022-10-06T22:01:40.652Z,2.83
2022-10-06T22:06:43.647Z,2.70
2022-10-06T22:11:46.071Z,3.08
2022-10-06T22:16:48.089Z,2.80
2022-10-06T22:21:49.466Z,2.72
2022-10-06T22:26:50.848Z,2.90
2022-10-06T22:31:52.656Z,3.05
2022-10-06T22:36:54.031Z,4.30
2022-10-06T22:41:55.397Z,4.93
2022-10-06T22:46:56.831Z,4.43
2022-10-06T22:56:59.508Z,6.30
2022-10-06T23:02:00.829Z,4.88
2022-10-06T23:07:02.184Z,4.85
2022-10-06T23:12:03.686Z,4.43
2022-10-06T23:17:05.021Z,4.05
2022-10-06T23:22:06.352Z,3.42
2022-10-06T23:27:07.712Z,3.22
2022-10-06T23:32:09.116Z,3.30
2022-10-06T23:37:10.536Z,2.90
2022-10-06T23:42:12.139Z,2.90
2022-10-06T23:52:14.719Z,3.10
2022-10-06T23:57:16.096Z,3.00
